Hlavní strana
METAR-TAF:

METAR-TAF

Letiště :

Lima, Ohio, Spojené státy americké

zeměpisná šířka: 40-42-29N, zeměpisná délka: 084-01-17W, výška: 297 m

Aktuální stav počasí

Zpráva byla vytvořena před 32 minutami, v 21:53 UTC
Severoseverovýchodní vítr 19 kt s nárazy do 26 kt
Teplota 6°C
Vlhkost vzduchu 33%
Tlak 1021 hPa
Viditelnost: 16.1 km
Jasno

METAR: KAOH 252153Z AUTO 03019G26KT 10SM CLR 06/M09 A3016 RMK AO2 PK WND 02026/2148 SLP219 T00611089

Čas: 18:25 (22:25 UTC)


TAF: chybějící

Stav a předpovědi počasí z více než 4 000 letišť (zprávy METAR a TAF).

Červené a žluté tečky na mapě představují dostupné meteorologické stanice.

Když kurzor umístíte na tečku, zobrazí se název stanice.

Pak kliknutím zobrazíte stav a předpověď počasí.

Chcete-li změnit mapu, kliknutím na zelené tlačítko se znaménkem +mapu přiblížíte, kliknutím na zelené tlačítko se znaménkem – mapu oddálíte a kliknutím na zelené šipky přejdete na sousední mapy.


METAR-TAF: